Terminal Aerodrome Forecast
Issued by NWS

Home | Current Version | Previous Version | Text Only | Print | Product List | Glossary On
Versions: 1 2 3 4 5 6 7 8 9 10 11 12 13 14 15 16 17 18 19 20 21 22 23 24 25 26 27 28 29 30 31 32 33 34
000
FTAK31 PAFA 241424 AAB
TAFAGA
TAF AMD
PAGA 241424Z 2414/2512 32006KT 1/4SM FG OVC001
     FM241800 VRB04KT 4SM BR SCT001 BKN035 OVC050
     FM242000 VRB04KT P6SM VCSH BKN035 BKN050 BKN100
     FM242200 32006KT P6SM VCTS BKN035 BKN050CB BKN100
     FM250400 32006KT P6SM VCSH BKN035 BKN050 BKN100=

USA.gov is the U.S. government's official web portal to all federal, state and local government web resources and services.